Terminal Aerodrome Forecast
Issued by NWS

Home | Current Version | Previous Version | Graphics & Text | Print | Product List | Glossary On
Versions: 1 2 3 4 5 6 7 8 9 10 11 12 13 14 15 16 17 18 19
000
FTUS43 KPAH 032337
TAFCGI
TAF
KCGI 032337Z 0400/0424 VRB04KT P6SM VCTS BKN040CB
      TEMPO 0400/0401 3SM TSRA BKN025CB
     FM040100 35003KT P6SM FEW040
     FM040800 00000KT 5SM BR SKC
      TEMPO 0409/0413 2SM BR SCT002 SCT015
     FM041500 VRB05KT P6SM SCT040=

USA.gov is the U.S. government's official web portal to all federal, state and local government web resources and services.